Time;durP1;ratioP1;P1;durP2;ratioP2;P2;SDS_P1;SDS_P2;PMS_P1;PMS_P2;Temp;Humidity;BMP_temperature;BMP_pressure;BME280_temperature;BME280_humidity;BME280_pressure;Samples;Min_cycle;Max_cycle;Signal;HPM_P1;HPM_P2
2021/06/07 00:01:55;;;;;;;24.82;12.23;;;;;;;13.30;100.00;99744.41;1726640;83;21105;-77
2021/06/07 00:04:24;;;;;;;16.65;8.83;;;;;;;13.27;100.00;99750.66;1726227;83;20976;-79
2021/06/07 00:06:51;;;;;;;18.40;8.50;;;;;;;13.26;100.00;99742.83;1726525;81;21529;-81
2021/06/07 00:09:20;;;;;;;13.30;8.23;;;;;;;13.23;100.00;99745.17;1726473;83;21030;-79
2021/06/07 00:11:50;;;;;;;12.18;8.33;;;;;;;13.21;100.00;99748.37;1726343;83;21545;-78
2021/06/07 00:14:21;;;;;;;77.05;34.40;;;;;;;13.19;100.00;99747.59;1726297;81;21789;-79
2021/06/07 00:16:49;;;;;;;;;;;;;;;13.14;100.00;99745.20;1729350;83;21007;-80
2021/06/07 00:19:19;;;;;;;25.10;13.35;;;;;;;13.09;100.00;99745.92;1699991;83;20446;-78
2021/06/07 00:21:48;;;;;;;17.05;8.35;;;;;;;13.03;100.00;99736.98;1726547;83;21063;-78
2021/06/07 00:24:17;;;;;;;13.25;7.60;;;;;;;12.99;100.00;99740.72;1721568;83;21661;-77
2021/06/07 00:26:45;;;;;;;12.07;8.15;;;;;;;12.95;100.00;99741.37;1726074;83;21564;-78
2021/06/07 00:29:14;;;;;;;18.40;13.00;;;;;;;12.92;100.00;99739.34;1730151;81;21479;-79
2021/06/07 00:31:41;;;;;;;28.05;18.37;;;;;;;12.87;100.00;99742.23;1732640;82;21003;-77
2021/06/07 00:34:14;;;;;;;32.95;19.48;;;;;;;12.84;100.00;99740.20;1732648;80;20991;-76
2021/06/07 00:36:43;;;;;;;16.87;11.55;;;;;;;12.80;100.00;99736.41;1772285;80;21994;-67
2021/06/07 00:39:14;;;;;;;15.48;10.75;;;;;;;12.76;100.00;99742.78;1769532;80;21141;-67
2021/06/07 00:41:43;;;;;;;14.00;9.83;;;;;;;12.73;100.00;99740.30;1761574;81;21083;-67
2021/06/07 00:44:13;;;;;;;11.33;6.95;;;;;;;12.70;100.00;99740.48;1761197;81;21023;-67
2021/06/07 00:46:40;;;;;;;12.23;7.00;;;;;;;12.69;100.00;99734.78;1761368;81;21044;-67
2021/06/07 00:49:08;;;;;;;9.90;6.62;;;;;;;12.69;100.00;99737.91;1761193;81;21059;-68
2021/06/07 00:51:37;;;;;;;11.08;7.00;;;;;;;12.67;100.00;99741.94;1761451;81;21007;-68
2021/06/07 00:54:04;;;;;;;13.45;7.47;;;;;;;12.66;100.00;99742.03;1761473;81;20980;-68
2021/06/07 00:56:32;;;;;;;11.93;7.05;;;;;;;12.65;100.00;99742.48;1761352;81;21087;-67
2021/06/07 00:59:00;;;;;;;13.43;7.62;;;;;;;12.67;100.00;99744.58;1761273;81;21110;-72
2021/06/07 01:01:29;;;;;;;10.20;6.70;;;;;;;12.66;100.00;99740.23;1761223;81;21063;-68
2021/06/07 01:03:58;;;;;;;10.58;5.95;;;;;;;12.68;100.00;99742.34;1768296;79;21915;-68
2021/06/07 01:06:26;;;;;;;9.05;6.60;;;;;;;12.70;100.00;99742.23;1781516;80;21060;-67
2021/06/07 01:08:55;;;;;;;12.65;6.45;;;;;;;12.68;100.00;99744.98;1781987;80;21723;-68
2021/06/07 01:13:26;;;;;;;13.90;5.97;;;;;;;12.71;100.00;99742.17;1777666;79;22511;-68
2021/06/07 01:15:56;;;;;;;9.15;5.83;;;;;;;12.67;100.00;99747.22;1747273;82;20981;-69
2021/06/07 01:18:24;;;;;;;8.10;5.90;;;;;;;12.68;100.00;99749.42;1747348;82;21812;-68
2021/06/07 01:20:54;;;;;;;13.55;6.80;;;;;;;12.68;100.00;99746.78;1747168;82;21056;-69
2021/06/07 01:23:21;;;;;;;12.30;6.20;;;;;;;12.67;100.00;99745.89;1747213;82;21050;-68
2021/06/07 01:25:48;;;;;;;8.45;6.05;;;;;;;12.66;100.00;99751.28;1684194;84;21102;-67
2021/06/07 01:28:18;;;;;;;10.65;6.53;;;;;;;12.65;100.00;99747.77;1705382;84;21113;-68
2021/06/07 01:30:49;;;;;;;11.65;6.87;;;;;;;12.64;100.00;99751.34;1681754;85;21156;-69
2021/06/07 01:33:20;;;;;;;10.23;7.08;;;;;;;12.61;100.00;99746.23;1707120;84;21535;-68
2021/06/07 01:35:48;;;;;;;14.87;6.95;;;;;;;12.61;100.00;99754.16;1707554;84;21542;-68
2021/06/07 01:38:15;;;;;;;9.90;6.78;;;;;;;12.58;100.00;99754.30;1707454;83;21089;-69
2021/06/07 01:40:46;;;;;;;15.38;6.62;;;;;;;12.56;100.00;99755.72;1707425;84;21054;-69
2021/06/07 01:43:13;;;;;;;9.13;6.40;;;;;;;12.56;100.00;99764.08;1707546;83;21187;-67
2021/06/07 01:45:42;;;;;;;8.20;6.70;;;;;;;12.54;100.00;99755.41;1707431;83;21043;-74
2021/06/07 01:48:11;;;;;;;10.13;6.92;;;;;;;12.56;100.00;99761.00;1707319;84;21078;-76
2021/06/07 01:50:39;;;;;;;12.23;5.65;;;;;;;12.56;100.00;99763.64;1707033;84;21416;-74
2021/06/07 01:53:06;;;;;;;7.67;5.17;;;;;;;12.56;100.00;99766.72;1707380;84;21066;-76
2021/06/07 01:55:36;;;;;;;8.83;5.90;;;;;;;12.56;100.00;99758.80;1707263;83;21148;-75
2021/06/07 01:58:05;;;;;;;8.93;5.20;;;;;;;12.57;100.00;99761.84;1707308;83;21066;-75
2021/06/07 02:00:43;;;;;;;12.33;5.78;;;;;;;12.55;100.00;99760.59;1707141;84;21075;-76
2021/06/07 02:03:13;;;;;;;9.10;5.62;;;;;;;12.56;100.00;99760.12;1701274;83;21045;-77
2021/06/07 02:05:40;;;;;;;8.60;5.67;;;;;;;12.57;100.00;99763.16;1678999;85;21160;-81
2021/06/07 02:08:09;;;;;;;11.70;6.10;;;;;;;12.58;100.00;99759.58;1678658;85;21599;-80
2021/06/07 02:10:44;;;;;;;4.92;4.08;;;;;;;12.62;100.00;99761.14;1678569;85;21061;-79
2021/06/07 02:13:13;;;;;;;16.02;6.35;;;;;;;12.65;100.00;99760.97;1684993;83;21106;-79
2021/06/07 02:15:41;;;;;;;10.32;6.72;;;;;;;12.68;100.00;99762.16;1694434;84;21078;-79
2021/06/07 02:18:11;;;;;;;10.32;6.20;;;;;;;12.71;100.00;99766.42;1689299;83;21049;-80
2021/06/07 02:20:39;;;;;;;10.23;6.80;;;;;;;12.73;100.00;99762.77;1686100;85;21086;-80
2021/06/07 02:23:06;;;;;;;11.97;6.55;;;;;;;12.78;100.00;99769.98;1686503;84;21549;-76
2021/06/07 02:25:33;;;;;;;10.23;5.78;;;;;;;12.83;100.00;99774.17;1685030;85;22177;-75
2021/06/07 02:28:00;;;;;;;6.85;5.65;;;;;;;12.86;100.00;99771.36;1685520;85;21685;-78
2021/06/07 02:30:28;;;;;;;8.43;4.90;;;;;;;12.88;100.00;99780.07;1687058;84;21075;-78
2021/06/07 02:32:59;;;;;;;10.23;5.97;;;;;;;12.89;100.00;99772.55;1690456;84;21068;-80
2021/06/07 02:35:26;;;;;;;10.53;5.97;;;;;;;12.93;100.00;99775.39;1690516;84;21576;-78
2021/06/07 02:37:54;;;;;;;7.25;5.37;;;;;;;12.97;100.00;99774.30;1690481;84;21096;-78
2021/06/07 02:40:27;;;;;;;13.62;6.22;;;;;;;13.04;100.00;99782.30;1690679;84;21622;-79
2021/06/07 02:42:54;;;;;;;6.85;5.08;;;;;;;13.10;100.00;99781.98;1690667;84;21112;-80
2021/06/07 02:45:21;;;;;;;7.90;5.80;;;;;;;13.14;100.00;99782.21;1690514;84;21125;-80
2021/06/07 02:47:51;;;;;;;12.98;5.72;;;;;;;13.20;100.00;99783.22;1690537;84;21044;-80
2021/06/07 02:50:28;;;;;;;11.30;6.08;;;;;;;13.27;100.00;99790.33;1690312;84;21087;-80
2021/06/07 02:52:55;;;;;;;9.00;5.67;;;;;;;13.34;100.00;99792.20;1690563;84;21052;-80
2021/06/07 02:55:29;;;;;;;8.18;5.95;;;;;;;13.41;100.00;99793.58;1690647;84;21622;-79
2021/06/07 02:57:57;;;;;;;11.88;5.80;;;;;;;13.47;100.00;99790.61;1690551;84;21274;-80
2021/06/07 03:00:37;;;;;;;11.88;6.65;;;;;;;13.57;100.00;99790.95;1690385;83;21087;-77
2021/06/07 03:03:05;;;;;;;9.40;4.93;;;;;;;13.66;100.00;99785.64;1662570;86;21083;-79
2021/06/07 03:05:34;;;;;;;15.98;6.50;;;;;;;13.75;100.00;99785.13;1662434;86;21086;-78
2021/06/07 03:08:01;;;;;;;11.93;6.03;;;;;;;13.85;100.00;99787.66;1662538;86;21091;-80
2021/06/07 03:10:27;;;;;;;15.90;6.65;;;;;;;13.92;100.00;99781.08;1674496;84;21133;-78
2021/06/07 03:12:56;;;;;;;9.90;5.25;;;;;;;14.00;100.00;99785.45;1684062;80;21535;-75
2021/06/07 03:15:23;;;;;;;10.95;6.50;;;;;;;14.09;100.00;99788.53;1682965;85;21068;-74
2021/06/07 03:17:52;;;;;;;8.80;5.70;;;;;;;14.18;100.00;99780.06;1682172;85;22200;-73
2021/06/07 03:20:26;;;;;;;11.15;5.78;;;;;;;14.26;100.00;99781.78;1681335;85;21604;-74
2021/06/07 03:22:59;;;;;;;11.33;5.65;;;;;;;14.34;100.00;99772.09;1681438;83;21073;-75
2021/06/07 03:25:28;;;;;;;12.47;5.42;;;;;;;14.43;100.00;99768.90;1681503;85;22203;-74
2021/06/07 03:27:56;;;;;;;8.00;6.00;;;;;;;14.50;100.00;99770.24;1678192;80;21059;-79
2021/06/07 03:30:23;;;;;;;11.33;6.03;;;;;;;14.57;100.00;99770.77;1671052;84;21673;-79
2021/06/07 03:32:51;;;;;;;11.80;6.00;;;;;;;14.65;100.00;99769.82;1698139;84;21020;-80
2021/06/07 03:35:18;;;;;;;9.58;5.60;;;;;;;14.74;100.00;99775.05;1697433;84;21102;-79
2021/06/07 03:37:45;;;;;;;11.78;5.95;;;;;;;14.78;100.00;99762.84;1697238;84;21079;-78
2021/06/07 03:40:21;;;;;;;8.45;5.83;;;;;;;14.84;100.00;99761.16;1697304;84;21094;-82
2021/06/07 03:42:48;;;;;;;6.53;5.15;;;;;;;14.89;100.00;99761.73;1693195;80;21074;-74
2021/06/07 03:45:16;;;;;;;9.03;5.60;;;;;;;14.95;100.00;99765.80;1680444;85;21165;-78
2021/06/07 03:47:44;;;;;;;9.60;5.60;;;;;;;15.01;100.00;99759.28;1699465;82;21805;-80
2021/06/07 03:50:14;;;;;;;7.80;4.83;;;;;;;15.08;100.00;99766.75;1736324;82;21604;-78
2021/06/07 03:52:41;;;;;;;8.33;5.28;;;;;;;15.15;100.00;99764.58;1704050;82;21121;-74
2021/06/07 03:55:10;;;;;;;6.25;4.28;;;;;;;15.23;100.00;99760.11;1698227;83;21518;-73
2021/06/07 03:57:37;;;;;;;9.63;5.40;;;;;;;15.29;100.00;99764.56;1707403;79;21059;-70
2021/06/07 04:00:06;;;;;;;7.87;5.92;;;;;;;15.37;100.00;99768.54;1683469;82;21531;-70
2021/06/07 04:02:35;;;;;;;11.40;5.90;;;;;;;15.43;100.00;99769.49;1684633;82;21105;-70
2021/06/07 04:05:03;;;;;;;9.68;6.12;;;;;;;15.50;100.00;99768.16;1733799;82;21072;-70
2021/06/07 04:07:31;;;;;;;8.70;5.45;;;;;;;15.57;100.00;99770.80;1746348;80;21100;-72
2021/06/07 04:09:58;;;;;;;9.18;5.53;;;;;;;15.68;100.00;99770.97;1736136;81;21110;-72
2021/06/07 04:12:25;;;;;;;7.15;5.58;;;;;;;15.79;100.00;99772.13;1737683;79;21321;-72
2021/06/07 04:14:52;;;;;;;13.22;6.20;;;;;;;15.93;100.00;99780.05;1704487;83;21062;-72
2021/06/07 04:17:21;;;;;;;8.00;6.20;;;;;;;16.04;99.42;99780.20;1709669;82;21840;-74
2021/06/07 04:19:48;;;;;;;7.65;5.42;;;;;;;16.12;98.54;99774.38;1694504;83;21072;-74
2021/06/07 04:22:15;;;;;;;10.28;5.58;;;;;;;16.23;97.95;99777.67;1662154;85;21120;-74
2021/06/07 04:24:45;;;;;;;8.58;5.00;;;;;;;16.32;97.08;99770.42;1673526;85;21566;-73
2021/06/07 04:27:16;;;;;;;12.15;5.67;;;;;;;16.42;96.24;99770.16;1665927;81;21036;-75
2021/06/07 04:29:44;;;;;;;7.65;5.50;;;;;;;16.50;95.04;99781.14;1727480;81;21660;-73
2021/06/07 04:32:11;;;;;;;8.75;5.10;;;;;;;16.57;94.59;99782.44;1700567;83;21405;-72
2021/06/07 04:34:39;;;;;;;5.47;4.72;;;;;;;16.65;93.65;99777.07;1715367;83;21024;-71
2021/06/07 04:37:06;;;;;;;8.35;5.72;;;;;;;16.75;93.38;99783.00;1716508;81;21155;-73
2021/06/07 04:39:33;;;;;;;7.58;4.70;;;;;;;16.87;92.77;99776.02;1716202;83;21044;-73
2021/06/07 04:42:00;;;;;;;9.48;5.20;;;;;;;17.01;92.33;99778.21;1717200;83;21036;-74
2021/06/07 04:44:29;;;;;;;7.92;5.55;;;;;;;17.15;91.88;99780.75;1648463;83;21091;-74
2021/06/07 04:46:56;;;;;;;10.93;5.12;;;;;;;17.24;90.65;99780.59;1688197;83;21156;-73
2021/06/07 04:49:23;;;;;;;6.53;4.90;;;;;;;17.30;90.14;99785.47;1688910;84;21119;-71
2021/06/07 04:51:51;;;;;;;6.83;5.15;;;;;;;17.33;89.55;99790.11;1684273;85;21073;-73
2021/06/07 04:54:18;;;;;;;7.78;5.58;;;;;;;17.40;89.30;99796.70;1681057;83;21161;-73
2021/06/07 04:56:45;;;;;;;7.47;5.78;;;;;;;17.48;89.38;99797.96;1667385;85;21618;-72
2021/06/07 04:59:12;;;;;;;10.15;5.92;;;;;;;17.58;88.99;99795.03;1686264;80;21100;-75
2021/06/07 05:01:38;;;;;;;9.30;5.87;;;;;;;17.64;88.84;99795.06;1692676;84;21774;-74
2021/06/07 05:04:06;;;;;;;8.90;5.87;;;;;;;17.73;88.73;99791.25;1684113;84;21057;-74
2021/06/07 05:06:33;;;;;;;12.40;6.10;;;;;;;17.80;88.82;99787.17;1651175;86;21054;-72
2021/06/07 05:09:00;;;;;;;9.60;6.03;;;;;;;17.95;88.59;99792.41;1638239;86;21026;-76
2021/06/07 05:11:27;;;;;;;11.57;6.42;;;;;;;18.05;88.19;99793.91;1637488;87;21175;-74
2021/06/07 05:13:54;;;;;;;7.58;6.28;;;;;;;18.18;87.60;99798.22;1633602;79;21090;-73
2021/06/07 05:16:21;;;;;;;10.82;5.53;;;;;;;18.27;87.33;99799.36;1634118;86;21050;-73
2021/06/07 05:18:48;;;;;;;7.22;5.47;;;;;;;18.42;87.02;99792.02;1609510;88;21552;-72
2021/06/07 05:21:15;;;;;;;8.03;5.12;;;;;;;18.60;86.02;99789.30;1620480;88;21156;-73
2021/06/07 05:23:41;;;;;;;7.87;5.15;;;;;;;18.77;84.93;99788.52;1620881;88;21113;-73
2021/06/07 05:26:10;;;;;;;11.55;6.45;;;;;;;18.95;83.86;99791.11;1619382;87;21154;-71
2021/06/07 05:28:38;;;;;;;8.65;5.37;;;;;;;19.16;83.34;99789.08;1659008;80;21124;-73
2021/06/07 05:31:09;;;;;;;11.60;5.42;;;;;;;19.42;82.89;99787.05;1702641;84;21104;-74
2021/06/07 05:33:36;;;;;;;12.10;6.70;;;;;;;19.69;80.55;99782.20;1700892;84;28148;-74
2021/06/07 05:36:05;;;;;;;10.75;5.35;;;;;;;20.03;78.45;99786.61;1698183;82;21622;-73
2021/06/07 05:38:32;;;;;;;11.65;5.67;;;;;;;20.23;75.71;99790.33;1697061;82;21234;-74
2021/06/07 05:41:00;;;;;;;9.05;5.62;;;;;;;20.57;74.97;99787.52;1702315;84;21084;-74
2021/06/07 05:43:27;;;;;;;8.68;5.10;;;;;;;20.95;74.47;99787.79;1684057;80;21033;-75
2021/06/07 05:45:54;;;;;;;10.40;5.83;;;;;;;21.39;72.87;99787.59;1683135;85;21076;-74
2021/06/07 05:48:20;;;;;;;7.85;5.35;;;;;;;21.83;71.71;99788.69;1683590;85;21193;-76
2021/06/07 05:50:48;;;;;;;10.95;5.40;;;;;;;22.27;70.30;99794.11;1686292;85;21469;-74
2021/06/07 05:53:15;;;;;;;9.08;5.55;;;;;;;22.74;68.15;99788.86;1623525;88;21086;-73
2021/06/07 05:55:43;;;;;;;14.53;5.65;;;;;;;23.13;65.03;99782.09;1625506;86;21105;-74
2021/06/07 05:58:15;;;;;;;7.35;4.60;;;;;;;23.60;63.97;99783.41;1619462;83;21132;-72
2021/06/07 06:00:44;;;;;;;7.65;4.35;;;;;;;23.99;60.93;99785.88;1654451;86;21096;-74
2021/06/07 06:03:11;;;;;;;5.67;4.28;;;;;;;24.17;58.04;99786.41;1660584;85;21972;-73
2021/06/07 06:05:38;;;;;;;6.12;3.95;;;;;;;24.37;58.49;99787.95;1663100;86;21041;-73
2021/06/07 06:08:06;;;;;;;9.90;4.55;;;;;;;24.46;57.10;99781.64;1654966;86;21088;-73
2021/06/07 06:10:34;;;;;;;7.90;4.67;;;;;;;24.32;56.36;99789.40;1650575;86;21106;-73
2021/06/07 06:13:01;;;;;;;5.70;4.80;;;;;;;24.14;56.75;99788.07;1641056;83;21195;-78
2021/06/07 06:15:28;;;;;;;12.35;4.92;;;;;;;23.93;56.37;99786.50;1609733;89;21173;-77
2021/06/07 06:17:55;;;;;;;9.98;4.92;;;;;;;23.63;57.00;99789.81;1610359;89;21099;-78
2021/06/07 06:20:29;;;;;;;10.72;5.35;;;;;;;23.37;57.66;99785.60;1609628;89;21120;-79
2021/06/07 06:22:51;;;;;;;7.17;4.90;;;;;;;23.10;57.32;99799.85;1608807;89;21605;-76
2021/06/07 06:25:18;;;;;;;12.68;5.70;;;;;;;22.76;57.87;99802.98;1619149;86;21098;-77
2021/06/07 06:27:45;;;;;;;8.68;5.42;;;;;;;22.50;58.82;99807.22;1619504;83;21932;-76
2021/06/07 06:30:18;;;;;;;10.05;5.08;;;;;;;22.29;60.14;99800.19;1631674;86;21082;-75
2021/06/07 06:32:47;;;;;;;8.25;5.22;;;;;;;22.17;60.85;99798.06;1677650;83;21046;-73
2021/06/07 06:35:14;;;;;;;6.83;4.80;;;;;;;22.08;61.69;99796.72;1688560;83;21125;-73
2021/06/07 06:37:44;;;;;;;12.98;4.83;;;;;;;22.04;61.50;99792.14;1701720;83;21101;-75
2021/06/07 06:40:21;;;;;;;9.40;4.47;;;;;;;21.96;61.72;99794.66;1688325;83;21153;-75
2021/06/07 06:42:52;;;;;;;9.37;4.70;;;;;;;21.98;61.46;99792.69;1662748;82;21129;-74
2021/06/07 06:45:20;;;;;;;13.75;4.90;;;;;;;22.09;61.60;99795.75;1705937;82;21079;-74
2021/06/07 06:47:51;;;;;;;8.03;4.92;;;;;;;22.20;60.50;99792.91;1706835;82;21113;-74
2021/06/07 06:50:17;;;;;;;9.68;5.00;;;;;;;22.37;60.47;99792.27;1656087;84;21100;-74
2021/06/07 06:52:44;;;;;;;8.40;5.00;;;;;;;22.43;60.44;99785.50;1668238;84;21826;-73
2021/06/07 06:55:12;;;;;;;11.10;4.37;;;;;;;22.51;60.25;99794.17;1638150;87;21113;-73
2021/06/07 06:57:58;;;;;;;10.60;4.97;;;;;;;22.61;59.06;99796.34;1684031;84;21106;-74
2021/06/07 07:00:25;;;;;;;8.08;4.55;;;;;;;22.61;58.68;99801.72;1703636;83;21107;-79
2021/06/07 07:02:53;;;;;;;6.83;4.95;;;;;;;22.73;58.31;99801.94;1685873;84;21229;-77
2021/06/07 07:05:20;;;;;;;37.75;6.72;;;;;;;22.81;58.07;99802.05;1723622;82;21100;-78
2021/06/07 07:07:47;;;;;;;9.73;5.12;;;;;;;22.83;57.96;99796.55;1691671;83;21065;-77
2021/06/07 07:10:16;;;;;;;8.20;4.60;;;;;;;22.81;57.92;99791.31;1638769;84;21094;-78
2021/06/07 07:13:02;;;;;;;18.30;5.90;;;;;;;22.90;57.91;99792.80;1677346;85;21046;-78
2021/06/07 07:15:29;;;;;;;15.15;4.85;;;;;;;22.98;57.80;99788.88;1689606;84;21078;-74
2021/06/07 07:17:56;;;;;;;15.05;4.87;;;;;;;23.01;57.05;99784.61;1691742;82;21100;-75
2021/06/07 07:20:23;;;;;;;18.05;4.72;;;;;;;22.99;56.70;99786.59;1689871;84;21150;-76
2021/06/07 07:22:54;;;;;;;9.00;4.20;;;;;;;23.11;57.33;99787.27;1672422;85;21085;-74
2021/06/07 07:25:19;;;;;;;13.30;5.75;;;;;;;23.49;57.35;99794.82;1685261;84;21087;-75
2021/06/07 07:28:06;;;;;;;10.65;5.08;;;;;;;23.94;55.40;99789.53;1684655;84;21093;-74
2021/06/07 07:30:35;;;;;;;8.95;4.17;;;;;;;24.32;53.82;99788.92;1678919;83;21157;-74
2021/06/07 07:33:02;;;;;;;5.37;3.98;;;;;;;24.57;52.75;99782.42;1694945;84;21739;-82
2021/06/07 07:35:29;;;;;;;9.13;4.83;;;;;;;24.78;53.25;99784.30;1692617;84;21104;-84
2021/06/07 07:37:57;;;;;;;9.45;4.00;;;;;;;25.08;52.13;99781.64;1720738;83;21053;-85
2021/06/07 07:40:24;;;;;;;10.35;3.83;;;;;;;25.10;51.03;99784.19;1700984;84;21033;-85
2021/06/07 07:43:11;;;;;;;9.75;4.15;;;;;;;25.13;50.95;99790.59;1681972;83;21518;-80
2021/06/07 07:45:39;;;;;;;11.78;4.53;;;;;;;25.13;50.62;99783.86;1684287;82;21173;-78
2021/06/07 07:48:08;;;;;;;6.15;3.70;;;;;;;25.28;49.86;99780.95;1650685;86;21075;-83
2021/06/07 07:50:35;;;;;;;12.65;4.05;;;;;;;25.49;49.10;99776.98;1643404;86;21483;-78
2021/06/07 07:53:02;;;;;;;9.40;5.20;;;;;;;25.75;48.17;99773.73;1643550;85;21088;-80
2021/06/07 07:55:31;;;;;;;27.32;6.75;;;;;;;26.01;47.12;99776.87;1670042;85;21559;-81
2021/06/07 07:58:20;;;;;;;5.72;3.42;;;;;;;25.99;47.64;99754.60;1663448;85;21057;-80
2021/06/07 08:00:49;;;;;;;4.33;2.95;;;;;;;26.07;47.04;99776.22;1733053;81;21069;-77
2021/06/07 08:03:17;;;;;;;4.22;3.65;;;;;;;25.97;46.22;99772.80;1701996;83;21061;-77
2021/06/07 08:05:44;;;;;;;11.45;4.22;;;;;;;25.83;47.39;99774.25;1715217;83;21038;-77
2021/06/07 08:08:14;;;;;;;5.67;3.37;;;;;;;25.61;48.06;99779.75;1712230;82;21089;-77
2021/06/07 08:10:42;;;;;;;4.15;2.80;;;;;;;25.54;48.36;99778.20;1696288;84;21076;-74
2021/06/07 08:13:09;;;;;;;4.40;3.08;;;;;;;25.63;48.69;99773.70;1694014;81;21092;-75
2021/06/07 08:15:37;;;;;;;5.65;3.10;;;;;;;25.72;52.10;99772.72;1656583;85;21121;-75
2021/06/07 08:18:05;;;;;;;5.58;3.47;;;;;;;25.86;49.83;99770.38;1677605;83;21109;-77
2021/06/07 08:20:33;;;;;;;3.65;2.98;;;;;;;25.92;48.80;99780.55;1679052;83;21169;-76
2021/06/07 08:23:00;;;;;;;5.15;3.45;;;;;;;25.94;47.65;99772.63;1684829;84;21089;-79
2021/06/07 08:25:27;;;;;;;3.95;2.95;;;;;;;25.93;49.94;99776.86;1678340;85;21117;-76
2021/06/07 08:27:55;;;;;;;5.33;3.02;;;;;;;25.91;48.72;99780.23;1678520;85;21768;-79
2021/06/07 08:30:23;;;;;;;6.37;2.72;;;;;;;25.78;48.46;99777.11;1690138;80;21107;-85
2021/06/07 08:32:50;;;;;;;4.22;2.60;;;;;;;25.66;48.54;99782.80;1721757;81;21106;-84
2021/06/07 08:35:17;;;;;;;4.33;2.90;;;;;;;25.48;48.06;99777.50;1726027;81;21042;-84
2021/06/07 08:37:44;;;;;;;7.05;2.80;;;;;;;25.46;48.71;99782.71;1723342;82;21354;-83
2021/06/07 08:40:14;;;;;;;8.60;2.90;;;;;;;25.55;47.97;99789.83;1738951;82;21600;-78
2021/06/07 08:42:42;;;;;;;4.58;2.77;;;;;;;25.83;47.85;99786.39;1720562;83;21012;-76
2021/06/07 08:45:12;;;;;;;6.87;3.27;;;;;;;26.35;46.41;99784.86;1741989;80;21964;-77
2021/06/07 08:47:41;;;;;;;3.33;2.70;;;;;;;26.94;43.46;99783.85;1744739;82;21042;-79
2021/06/07 08:50:10;;;;;;;6.08;2.70;;;;;;;27.36;43.15;99780.94;1725447;80;21170;-74
2021/06/07 08:52:42;;;;;;;6.83;3.35;;;;;;;27.72;41.55;99784.52;1744857;80;21069;-75
2021/06/07 08:55:08;;;;;;;6.50;2.80;;;;;;;27.93;41.31;99776.30;1733956;80;21190;-77
2021/06/07 08:57:43;;;;;;;4.60;2.35;;;;;;;28.27;40.81;99773.73;1733845;80;21119;-74
2021/06/07 09:00:13;;;;;;;2.70;1.92;;;;;;;28.63;39.44;99774.83;1666768;79;21051;-82
2021/06/07 09:02:41;;;;;;;3.80;2.35;;;;;;;29.09;39.45;99767.66;1717339;82;21070;-73
2021/06/07 09:05:09;;;;;;;3.12;2.00;;;;;;;29.51;37.12;99767.52;1692442;81;21065;-78
2021/06/07 09:07:59;;;;;;;2.52;1.80;;;;;;;29.42;36.57;99758.11;1689154;81;21106;-79
2021/06/07 09:10:28;;;;;;;3.12;2.27;;;;;;;29.01;38.07;99759.91;1708224;81;21123;-80
2021/06/07 09:13:00;;;;;;;4.17;2.37;;;;;;;28.83;38.20;99762.97;1708532;81;20990;-79
2021/06/07 09:15:38;;;;;;;4.58;1.82;;;;;;;28.83;38.64;99759.42;1741946;80;21038;-79
2021/06/07 09:18:09;;;;;;;3.83;1.87;;;;;;;28.93;37.68;99751.86;1733514;82;21074;-78
2021/06/07 09:20:38;;;;;;;3.67;1.98;;;;;;;29.05;37.09;99747.66;1745943;80;21030;-80
2021/06/07 09:23:10;;;;;;;5.65;2.40;;;;;;;29.23;37.19;99744.61;1706762;82;21127;-79
2021/06/07 09:25:40;;;;;;;3.85;2.17;;;;;;;29.25;36.40;99745.79;1702967;82;21123;-80
2021/06/07 09:28:18;;;;;;;4.70;1.90;;;;;;;29.01;37.51;99748.20;1695944;82;21556;-80
2021/06/07 09:31:08;;;;;;;2.40;1.90;;;;;;;29.05;36.70;99747.66;1715258;83;21060;-79
2021/06/07 09:33:44;;;;;;;5.35;2.20;;;;;;;29.02;36.79;99745.32;1719838;82;21109;-77
2021/06/07 09:36:25;;;;;;;3.95;2.02;;;;;;;28.80;37.24;99744.88;1764964;80;21075;-80
2021/06/07 09:39:16;;;;;;;2.83;1.92;;;;;;;28.64;37.40;99743.16;1769414;80;21003;-80
2021/06/07 09:42:02;;;;;;;2.50;1.80;;;;;;;28.64;37.49;99746.73;1763239;80;21077;-78
2021/06/07 09:44:43;;;;;;;6.20;2.12;;;;;;;28.72;36.99;99740.90;1739990;78;21041;-80
2021/06/07 09:47:19;;;;;;;6.72;2.70;;;;;;;28.55;37.98;99743.77;1698977;83;21133;-80
2021/06/07 09:50:04;;;;;;;8.70;2.62;;;;;;;28.32;37.62;99740.17;1653569;85;21126;-74
2021/06/07 09:52:44;;;;;;;2.55;2.15;;;;;;;27.98;39.12;99744.16;1657840;85;21632;-74
2021/06/07 09:55:14;;;;;;;6.97;2.60;;;;;;;27.95;39.59;99739.09;1661665;85;21110;-75
2021/06/07 09:57:50;;;;;;;11.87;3.23;;;;;;;28.11;39.37;99738.97;1652487;85;21077;-74
2021/06/07 10:00:43;;;;;;;4.12;2.50;;;;;;;28.39;37.93;99727.59;1720453;81;21068;-83
2021/06/07 10:03:28;;;;;;;4.47;2.15;;;;;;;28.83;36.74;99722.84;1756521;81;21151;-82
2021/06/07 10:05:58;;;;;;;5.17;2.25;;;;;;;29.07;36.76;99723.94;1760212;81;21095;-83
2021/06/07 10:08:42;;;;;;;7.17;2.60;;;;;;;29.20;36.41;99719.76;1747609;81;21083;-79
2021/06/07 10:11:23;;;;;;;5.20;2.08;;;;;;;29.22;36.09;99715.83;1744916;81;21147;-82
2021/06/07 10:13:53;;;;;;;4.97;2.25;;;;;;;29.32;34.71;99710.11;1739616;81;20982;-75
2021/06/07 10:16:20;;;;;;;5.25;2.15;;;;;;;29.22;35.11;99713.63;1703128;82;21830;-73
2021/06/07 10:18:47;;;;;;;3.42;2.22;;;;;;;29.07;35.27;99694.13;1722732;81;21089;-75
2021/06/07 10:21:14;;;;;;;2.67;1.95;;;;;;;28.99;35.90;99702.34;1706147;81;21055;-75
2021/06/07 10:23:41;;;;;;;4.33;1.92;;;;;;;28.93;35.87;99705.78;1698026;82;21806;-74
2021/06/07 10:26:08;;;;;;;2.65;2.00;;;;;;;28.90;35.62;99698.03;1698696;81;21070;-74
2021/06/07 10:28:56;;;;;;;4.45;2.00;;;;;;;29.06;35.33;99700.55;1691555;83;21178;-74
2021/06/07 10:31:24;;;;;;;5.55;2.30;;;;;;;29.24;35.42;99692.08;1683170;84;21052;-73
2021/06/07 10:34:00;;;;;;;3.40;2.00;;;;;;;29.35;35.27;99693.97;1695967;83;21064;-73
2021/06/07 10:36:32;;;;;;;2.00;1.70;;;;;;;29.39;35.37;99690.69;1711251;83;21587;-72
2021/06/07 10:39:23;;;;;;;3.17;1.85;;;;;;;29.39;34.14;99683.07;1722281;83;21076;-73
2021/06/07 10:42:14;;;;;;;4.25;1.70;;;;;;;29.39;33.81;99677.12;1698701;83;21854;-73
2021/06/07 10:44:47;;;;;;;4.45;1.50;;;;;;;29.52;33.47;99682.38;1671245;82;21014;-84
2021/06/07 10:47:20;;;;;;;3.17;1.50;;;;;;;29.55;32.83;99675.23;1732373;82;21133;-84
2021/06/07 10:50:07;;;;;;;5.20;2.08;;;;;;;29.37;32.97;99675.12;1742473;82;21026;-82
2021/06/07 10:52:51;;;;;;;7.60;1.95;;;;;;;29.30;33.66;99669.30;1742353;80;21032;-84
2021/06/07 10:55:24;;;;;;;6.00;1.90;;;;;;;29.19;33.92;99666.54;1735255;80;21149;-85
2021/06/07 10:58:00;;;;;;;3.85;1.65;;;;;;;29.23;33.52;99673.27;1719590;83;21114;-86
2021/06/07 11:00:39;;;;;;;4.60;1.70;;;;;;;29.27;33.41;99664.57;1677559;78;21120;-73
2021/06/07 11:03:20;;;;;;;4.45;1.80;;;;;;;29.44;33.11;99673.31;1670448;84;21063;-74
2021/06/07 11:05:53;;;;;;;1.92;1.72;;;;;;;29.62;33.59;99658.51;1676949;84;21056;-74
2021/06/07 11:08:34;;;;;;;3.33;1.75;;;;;;;29.70;32.43;99667.90;1674553;84;21158;-73
2021/06/07 11:11:06;;;;;;;;;;;;;;;29.70;32.65;99667.90;1681009;84;21532;-74
2021/06/07 11:14:11;;;;;;;5.53;1.98;;;;;;;29.63;32.97;99660.17;1677833;85;20148;-75
2021/06/07 11:16:42;;;;;;;3.02;1.90;;;;;;;29.58;32.38;99656.68;1630421;88;21047;-73
2021/06/07 11:19:12;;;;;;;5.53;2.05;;;;;;;29.40;32.04;99650.34;1630481;85;21647;-73
2021/06/07 11:21:47;;;;;;;4.22;1.72;;;;;;;29.37;33.14;99649.35;1658203;84;21796;-73
2021/06/07 11:24:35;;;;;;;1.50;1.27;;;;;;;29.38;32.11;99649.69;1658689;84;21061;-75
2021/06/07 11:27:05;;;;;;;2.35;1.45;;;;;;;29.42;31.97;99648.25;1640274;86;21063;-75
2021/06/07 11:29:32;;;;;;;4.93;2.03;;;;;;;29.43;31.19;99630.97;1690443;81;21615;-76
2021/06/07 11:32:10;;;;;;;6.05;1.75;;;;;;;29.42;32.24;99644.71;1709080;82;21076;-76
2021/06/07 11:34:47;;;;;;;2.60;1.47;;;;;;;29.46;31.86;99644.14;1714569;82;21169;-76
2021/06/07 11:37:35;;;;;;;5.60;1.32;;;;;;;29.59;31.93;99637.20;1708522;84;21081;-79
2021/06/07 11:40:10;;;;;;;1.20;1.10;;;;;;;29.63;31.51;99633.05;1709999;82;21057;-77
2021/06/07 11:42:54;;;;;;;2.17;1.22;;;;;;;29.72;30.99;99641.41;1708971;82;21057;-78
2021/06/07 11:45:42;;;;;;;3.42;1.00;;;;;;;29.77;29.18;99638.98;1697225;81;21100;-76